Kraków John Paul II International Airport

EPKK · Lesser Poland, Poland

METAR history EPKK · Kraków John Paul II International Airport

Below you see METARs of the last few days. Select a year to browse through older METARs, from the year 2007 onwards.

February 4, 2023

Time Code Weather Temp. Visibility Ceiling Wind METAR/SPECI
17:00
V
-1 °C 10 km+ 5,500 ft 300° 300° 7 kt METAR EPKK 041600Z 30007KT 270V330 9999 -SHSN FEW024CB SCT046 BKN055 M01/M06 Q1029
16:30
V
-1 °C 10 km+ - 320° 320° 12 kt METAR EPKK 041530Z 32012KT 9999 SCT030 SCT046 M01/M06 Q1029
16:00
V
-1 °C 10 km+ - 320° 320° 13 kt METAR EPKK 041500Z 32013KT 300V360 9999 SCT030 SCT046 M01/M06 Q1029
15:30
V
-1 °C 10 km+ - 310° 310° 11 kt METAR EPKK 041430Z 31011KT 9999 SCT030 M01/M07 Q1028
15:00
V
-1 °C 10 km+ - 310° 310° 11 kt METAR EPKK 041400Z 31011KT 9999 FEW033 SCT043 M01/M08 Q1028
14:30
V
-1 °C 10 km+ - 330° 330° 13 kt METAR EPKK 041330Z 33013KT 9999 FEW033 SCT043 M01/M08 Q1028
14:00
V
-1 °C 10 km+ 4,200 ft 340° 340° 17 kt METAR EPKK 041300Z 34017KT 310V010 9999 SCT031 BKN042 M01/M08 Q1027
13:30
V
-1 °C 10 km+ - 340° 340° 20 kt METAR EPKK 041230Z 34020KT 9999 SCT033 M01/M08 Q1027
13:00
V
0 °C 10 km+ - 340° 340° 18 kt METAR EPKK 041200Z 34018KT 9999 SCT033 M00/M07 Q1027
12:30
V
0 °C 10 km+ - 330° 330° 14 kt METAR EPKK 041130Z 33014KT 310V010 9999 SCT033 M00/M06 Q1026
12:00
V
0 °C 10 km+ - 330° 330° 12 kt METAR EPKK 041100Z 33012KT 9999 SCT030 M00/M06 Q1026
11:30
V
0 °C 10 km+ - 340° 340° 14 kt METAR EPKK 041030Z 34014KT 300V360 9999 FEW023 SCT046 M00/M05 Q1025
11:00
V
0 °C 10 km+ 5,000 ft 340° 340° 12 kt METAR EPKK 041000Z 34012KT 310V020 9999 FEW023 BKN050 M00/M05 Q1025
10:30
V
0 °C 10 km+ - 360° 360° 13 kt METAR EPKK 040930Z 36013KT 9999 FEW023 SCT046 M00/M05 Q1024
10:00
V
-1 °C 10 km+ - 360° 360° 13 kt METAR EPKK 040900Z 36013KT 330V030 9999 SCT023 M01/M05 Q1024
09:30
V
-1 °C 10 km+ 3,300 ft 360° 360° 15 kt METAR EPKK 040830Z 36015KT 9999 FEW020 BKN033 M01/M05 Q1023
09:00
M
-1 °C 10 km+ 2,300 ft 360° 360° 16 kt METAR EPKK 040800Z 36016KT 9999 BKN023 M01/M04 Q1022
08:30
M
-1 °C 10 km+ 2,000 ft 360° 360° 17 - 27 kt METAR EPKK 040730Z 36017G27KT 9999 FEW015 BKN020 M01/M04 Q1021
08:00
M
-1 °C 10 km+ 2,000 ft 360° 360° 16 kt METAR EPKK 040700Z 36016KT 330V030 9999 BKN020 M01/M04 Q1019
07:30
I
-1 °C 3 km 2,200 ft 360° 360° 18 kt METAR EPKK 040630Z 36018KT 3000 -SN BR SCT016 BKN022 M01/M03 Q1017 RESN
07:00
I
-1 °C 2.5 km 2,100 ft 360° 360° 15 kt METAR EPKK 040600Z 36015KT 330V030 2500 SN BR SCT013 BKN021 M01/M02 Q1015 RESN
06:30
I
0 °C 3 km 2,000 ft 360° 360° 18 kt METAR EPKK 040530Z 36018KT 3000 +SN SCT014 BKN020 M00/M02 Q1014
06:00
I
0 °C 4 km 1,500 ft 360° 360° 16 kt METAR EPKK 040500Z 36016KT 4000 SN SCT007 BKN015 00/M02 Q1011 RESN
05:30
I
1 °C 7 km 700 ft 310° 310° 12 kt METAR EPKK 040430Z 31012KT 7000 -SNRA BKN007 BKN015 01/M00 Q1010
05:00
M
2 °C 10 km+ 1,500 ft 290° 290° 14 kt METAR EPKK 040400Z 29014KT 9999 -RASN SCT007 BKN015 02/M00 Q1009
04:30
M
2 °C 10 km+ 1,400 ft 290° 290° 11 kt METAR EPKK 040330Z 29011KT 9999 -RA FEW007 BKN014 02/00 Q1008
04:00
M
2 °C 10 km+ 1,300 ft 290° 290° 10 kt METAR EPKK 040300Z 29010KT 9999 -RA FEW009 BKN013 02/01 Q1007
03:30
I
3 °C 10 km+ 900 ft 280° 280° 15 - 25 kt METAR EPKK 040230Z 28015G25KT 250V310 9999 -RA BKN009 OVC013 03/01 Q1007
03:00
I
2 °C 10 km+ 800 ft 250° 250° 12 kt METAR EPKK 040200Z 25012KT 9999 -RA BKN008 BKN012 02/01 Q1007
02:30
M
2 °C 10 km+ 1,100 ft 250° 250° 12 kt METAR EPKK 040130Z 25012KT 9999 -RA SCT008 BKN011 02/01 Q1007
02:00
M
2 °C 10 km+ 1,500 ft 240° 240° 11 kt METAR EPKK 040100Z 24011KT 9999 -RA SCT007 BKN015 02/01 Q1007
01:30
I
2 °C 7 km 800 ft 240° 240° 10 kt METAR EPKK 040030Z 24010KT 7000 -DZ SCT007 BKN008 02/01 Q1007
01:00
M
2 °C 10 km+ 1,000 ft 240° 240° 10 kt METAR EPKK 040000Z 24010KT 9999 -RA SCT007 BKN010 02/01 Q1008
00:30
M
2 °C 7 km 1,000 ft 240° 240° 8 kt METAR EPKK 032330Z 24008KT 7000 -RA SCT007 BKN010 02/01 Q1008
00:00
M
1 °C 8 km 1,000 ft 230° 230° 9 kt METAR EPKK 032300Z 23009KT 8000 -RA SCT007 BKN010 01/01 Q1008

February 3, 2023

Time Code Weather Temp. Visibility Ceiling Wind METAR/SPECI
23:30
M
2 °C 10 km+ 1,100 ft 240° 240° 8 kt METAR EPKK 032230Z 24008KT 9999 -RA SCT007 BKN011 02/01 Q1008
23:00
M
2 °C 10 km+ 1,100 ft 240° 240° 9 kt METAR EPKK 032200Z 24009KT 9999 -RA SCT007 BKN011 02/01 Q1008
22:30
M
2 °C 10 km+ 1,200 ft 240° 240° 9 kt METAR EPKK 032130Z 24009KT 9999 -RA SCT007 BKN012 02/01 Q1008
22:00
M
2 °C 10 km+ 1,300 ft 250° 250° 11 kt METAR EPKK 032100Z 25011KT 9999 -RA SCT008 BKN013 02/01 Q1008
21:30
M
2 °C 10 km+ 1,400 ft 250° 250° 14 kt METAR EPKK 032030Z 25014KT 9999 -RA FEW007 BKN014 02/01 Q1008
21:00
M
3 °C 10 km+ 1,200 ft 260° 260° 13 kt METAR EPKK 032000Z 26013KT 9999 -RA FEW007 BKN012 03/01 Q1008
20:30
M
3 °C 10 km+ 1,800 ft 270° 270° 9 kt METAR EPKK 031930Z 27009KT 240V300 9999 -RA FEW008 SCT013 BKN018 03/01 Q1008
20:00
M
3 °C 10 km+ 2,600 ft 260° 260° 14 kt METAR EPKK 031900Z 26014KT 9999 -RA FEW009 SCT015 BKN026 03/01 Q1008
19:30
M
2 °C 10 km+ 2,800 ft 250° 250° 14 kt METAR EPKK 031830Z 25014KT 9999 FEW008 SCT015 BKN028 02/01 Q1007
19:00
M
3 °C 10 km+ 1,800 ft 240° 240° 16 kt METAR EPKK 031800Z 24016KT 9999 -RA FEW009 BKN018 03/01 Q1007
18:30
M
3 °C 10 km+ 1,800 ft 250° 250° 18 kt METAR EPKK 031730Z 25018KT 9999 FEW009 BKN018 03/01 Q1007
18:00
M
3 °C 10 km+ 1,500 ft 260° 260° 18 kt METAR EPKK 031700Z 26018KT 9999 SCT006 BKN015 03/01 Q1006
17:30
M
2 °C 10 km+ 1,500 ft 240° 240° 15 kt METAR EPKK 031630Z 24015KT 9999 -RASN SCT006 BKN015 02/01 Q1006
17:00
I
1 °C 8 km 600 ft 240° 240° 14 kt METAR EPKK 031600Z 24014KT 8000 -SNRA SCT003 OVC006 01/01 Q1007 RESN
16:30
L
0 °C 1.4 km 200 ft 220° 220° 5 kt METAR EPKK 031530Z 22005KT 1400 R25/1400U SN BR BKN002 OVC003 00/M00 Q1007
16:00
L
0 °C 1.2 km 200 ft 210° 210° 6 kt METAR EPKK 031500Z 21006KT 1200 R25/1200U SN BR VV002 00/M00 Q1007 RESN
15:30
L
0 °C 700 m 200 ft 200° 200° 5 kt METAR EPKK 031430Z 20005KT 0700 R25/0650N +SN VV002 00/M00 Q1008
15:00
L
0 °C 800 m 200 ft 210° 210° 4 kt METAR EPKK 031400Z 21004KT 180V240 0800 R25/0900N +SN VV002 00/M00 Q1009
14:30
L
0 °C 1.4 km 300 ft Var Var 2 kt METAR EPKK 031330Z VRB02KT 1400 R25/1500D SN BR OVC003 00/M00 Q1009
14:00
L
0 °C 1 km 400 ft Var Var 2 kt METAR EPKK 031300Z VRB02KT 1000 R25/1200N SN BR BKN004 M00/M01 Q1010
13:30
L
0 °C 1.2 km 500 ft Var Var 2 kt METAR EPKK 031230Z VRB02KT 1200 R25/1300U SN BR BKN005 BKN011 M00/M01 Q1011
13:00
L
0 °C 1.1 km 1,500 ft 160° 160° 4 kt METAR EPKK 031200Z 16004KT 130V200 1100 R25/1100N SN BR BKN015 M00/M01 Q1012
12:30
I
0 °C 1.6 km 1,700 ft 180° 180° 4 kt METAR EPKK 031130Z 18004KT 130V200 1600 SN BR BKN017 M00/M01 Q1013
12:00
I
0 °C 2 km 2,000 ft 210° 210° 5 kt METAR EPKK 031100Z 21005KT 2000 SN BR BKN020 M00/M02 Q1015
11:30
I
0 °C 4 km 2,300 ft 210° 210° 8 kt METAR EPKK 031030Z 21008KT 4000 -SN BR BKN023 00/M03 Q1016
11:00
V
0 °C 10 km+ 3,000 ft 220° 220° 5 kt METAR EPKK 031000Z 22005KT 150V250 9999 -SN BKN030 00/M04 Q1017
10:30
V
0 °C 10 km+ 5,000 ft 210° 210° 5 kt METAR EPKK 030930Z 21005KT 9999 BKN050 00/M04 Q1017
10:00
V
0 °C 10 km+ 5,000 ft 220° 220° 4 kt METAR EPKK 030900Z 22004KT 9999 BKN050 M00/M04 Q1018
09:30
V
-1 °C 10 km+ 6,600 ft 230° 230° 3 kt METAR EPKK 030830Z 23003KT 9999 OVC066 M01/M04 Q1018
09:00
V
-1 °C 10 km+ - 210° 210° 4 kt METAR EPKK 030800Z 21004KT CAVOK M01/M04 Q1019
08:30
V
-1 °C 10 km+ - 200° 200° 4 kt METAR EPKK 030730Z 20004KT CAVOK M01/M04 Q1019
08:00
V
-1 °C 10 km+ - 210° 210° 5 kt METAR EPKK 030700Z 21005KT CAVOK M01/M03 Q1019
07:30
V
-2 °C 10 km+ - 220° 220° 4 kt METAR EPKK 030630Z 22004KT CAVOK M02/M04 Q1020
07:00
V
-1 °C 10 km+ - 220° 220° 6 kt METAR EPKK 030600Z 22006KT CAVOK M01/M04 Q1020
06:30
V
-1 °C 10 km+ - 220° 220° 7 kt METAR EPKK 030530Z 22007KT CAVOK M01/M04 Q1020
06:00
V
-1 °C 10 km+ - 230° 230° 6 kt METAR EPKK 030500Z 23006KT CAVOK M01/M04 Q1021
05:30
V
-1 °C 10 km+ - 260° 260° 9 kt METAR EPKK 030430Z 26009KT CAVOK M01/M04 Q1021
05:00
V
-1 °C 10 km+ - 270° 270° 9 kt METAR EPKK 030400Z 27009KT CAVOK M01/M04 Q1021
04:30
V
-2 °C 10 km+ - 250° 250° 7 kt METAR EPKK 030330Z 25007KT CAVOK M02/M04 Q1021
04:00
V
-1 °C 10 km+ - 250° 250° 8 kt METAR EPKK 030300Z 25008KT 9999 SCT038 M01/M03 Q1022
03:30
V
-1 °C 10 km+ 3,700 ft 260° 260° 7 kt METAR EPKK 030230Z 26007KT 9999 BKN037 M01/M03 Q1021
03:00
V
0 °C 10 km+ 3,500 ft 270° 270° 7 kt METAR EPKK 030200Z 27007KT 9999 BKN035 00/M03 Q1022
02:30
M
0 °C 7 km 2,600 ft 280° 280° 7 kt METAR EPKK 030130Z 28007KT 7000 FEW003 SCT013 BKN026 00/M02 Q1022 RESHSN
02:00
M
0 °C 7 km 2,700 ft 270° 270° 9 kt METAR EPKK 030100Z 27009KT 7000 SHSN FEW002 SCT016CB BKN027 00/M02 Q1022
01:30
V
0 °C 10 km+ 3,000 ft 280° 280° 8 kt METAR EPKK 030030Z 28008KT 9999 SCT020 BKN030 00/M02 Q1021
01:00
M
1 °C 10 km+ 2,000 ft 280° 280° 8 kt METAR EPKK 030000Z 28008KT 9999 SCT017CB BKN020 01/M02 Q1021
00:30
M
1 °C 10 km+ 1,700 ft 270° 270° 10 kt METAR EPKK 022330Z 27010KT 9999 FEW013CB BKN017 01/M02 Q1021
00:00
M
1 °C 10 km+ 2,000 ft 280° 280° 8 kt METAR EPKK 022300Z 28008KT 9999 SCT017CB BKN020 01/M02 Q1021

February 2, 2023

Time Code Weather Temp. Visibility Ceiling Wind METAR/SPECI
23:30
M
1 °C 10 km+ 2,000 ft 280° 280° 8 kt METAR EPKK 022230Z 28008KT 250V310 9999 SCT018CB BKN020 01/M02 Q1020
23:00
M
1 °C 10 km+ 2,300 ft 280° 280° 8 kt METAR EPKK 022200Z 28008KT 9999 SCT019CB BKN023 01/M02 Q1020
22:30
M
1 °C 10 km+ 2,300 ft 280° 280° 11 kt METAR EPKK 022130Z 28011KT 9999 -SHSN SCT016CB BKN023 01/M01 Q1019 RESHSN
22:00
I
1 °C 4 km 2,300 ft 300° 300° 13 kt METAR EPKK 022100Z 30013KT 270V330 4000 SHSN SCT013CB BKN023 01/M02 Q1019
21:30
M
2 °C 10 km+ 2,700 ft 270° 270° 11 kt METAR EPKK 022030Z 27011KT 9999 -SHRA SCT024CB BKN027 02/M02 Q1018
21:00
V
2 °C 10 km+ 3,000 ft 290° 290° 13 kt METAR EPKK 022000Z 29013KT 9999 -SHSN SCT025CB BKN030 02/M03 Q1018
20:30
M
2 °C 10 km+ 2,900 ft 280° 280° 12 kt METAR EPKK 021930Z 28012KT 9999 SCT025CB BKN029 02/M03 Q1017
20:00
V
2 °C 10 km+ 5,300 ft 290° 290° 13 kt METAR EPKK 021900Z 29013KT 9999 BKN053 02/M03 Q1017
19:30
V
2 °C 10 km+ 4,600 ft 280° 280° 12 kt METAR EPKK 021830Z 28012KT 9999 BKN046 02/M03 Q1016
19:00
V
3 °C 10 km+ 4,000 ft 280° 280° 10 kt METAR EPKK 021800Z 28010KT 9999 BKN040 03/M03 Q1016
18:30
V
2 °C 10 km+ 4,000 ft 290° 290° 11 kt METAR EPKK 021730Z 29011KT 9999 BKN040 02/M03 Q1015
18:00
V
3 °C 10 km+ 4,000 ft 300° 300° 16 kt METAR EPKK 021700Z 30016KT 270V330 9999 BKN040 03/M03 Q1015
17:30
V
3 °C 10 km+ 3,300 ft 280° 280° 11 kt METAR EPKK 021630Z 28011KT 250V310 9999 BKN033 03/M02 Q1014
16:30
V
3 °C 10 km+ - 270° 270° 12 kt METAR EPKK 021530Z 27012KT 9999 SCT035 SCT060 03/M01 Q1013
16:00
V
3 °C 10 km+ 3,300 ft 260° 260° 13 kt METAR EPKK 021500Z 26013KT 9999 BKN033 03/M01 Q1012
15:00
M
3 °C 10 km+ 2,300 ft 280° 280° 12 kt METAR EPKK 021400Z 28012KT 9999 BKN023 03/M01 Q1011
14:30
M
3 °C 10 km+ 2,000 ft 270° 270° 15 kt METAR EPKK 021330Z 27015KT 9999 BKN020 03/00 Q1010
14:00
M
3 °C 10 km+ 2,300 ft 270° 270° 16 kt METAR EPKK 021300Z 27016KT 9999 BKN023 03/00 Q1010
13:30
M
3 °C 10 km+ 1,700 ft 270° 270° 17 kt METAR EPKK 021230Z 27017KT 9999 BKN017 03/01 Q1009
13:00
M
3 °C 10 km+ 1,900 ft 260° 260° 15 kt METAR EPKK 021200Z 26015KT 9999 BKN019 03/01 Q1009
12:30
I
2 °C 10 km+ 800 ft 250° 250° 14 kt METAR EPKK 021130Z 25014KT 9999 -RASN BKN008 02/01 Q1009
12:00
I
2 °C 8 km 800 ft 240° 240° 16 kt METAR EPKK 021100Z 24016KT 8000 -RASN BKN008 02/01 Q1009
11:30
I
1 °C 3.5 km 500 ft 240° 240° 19 kt METAR EPKK 021030Z 24019KT 3500 -SN BR BKN005 01/00 Q1008
11:00
I
1 °C 4 km 500 ft 240° 240° 17 kt METAR EPKK 021000Z 24017KT 4000 -RASN BR BKN005 01/00 Q1008
10:30
I
2 °C 7 km 600 ft 240° 240° 17 kt METAR EPKK 020930Z 24017KT 7000 -RASN FEW004 BKN006 02/01 Q1008
10:00
M
1 °C 6 km 1,500 ft 240° 240° 17 kt METAR EPKK 020900Z 24017KT 6000 -SNRA SCT004 BKN015 01/00 Q1008
09:30
I
1 °C 4 km 1,100 ft 230° 230° 14 kt METAR EPKK 020830Z 23014KT 4000 -SNRA BR FEW004 BKN011 01/00 Q1008
09:00
M
2 °C 10 km+ 1,700 ft 230° 230° 16 kt METAR EPKK 020800Z 23016KT 9999 -SNRA FEW005 BKN017 02/00 Q1008

We and third parties follow your internet behavior on our website with cookies. If you continue, we assume you agree with our cookie policy.